Time;durP1;ratioP1;P1;durP2;ratioP2;P2;SDS_P1;SDS_P2;PMS_P1;PMS_P2;Temp;Humidity;BMP_temperature;BMP_pressure;BME280_temperature;BME280_humidity;BME280_pressure;Samples;Min_cycle;Max_cycle;Signal;HPM_P1;HPM_P2
2022/12/15 00:39:57;;;;;;;39.85;18.92;;;-2.30;67.50;;;;;;2346014;57;21053;-48
2022/12/15 00:42:27;;;;;;;35.05;18.58;;;-2.30;67.60;;;;;;2345909;57;21105;-50
2022/12/15 00:44:54;;;;;;;40.58;19.65;;;-2.20;68.00;;;;;;2345720;57;21054;-50
2022/12/15 00:47:22;;;;;;;40.92;19.75;;;-2.20;68.30;;;;;;2346205;57;21053;-51
2022/12/15 01:20:14;;;;;;;43.20;20.10;;;-2.00;68.40;;;;;;2346371;57;20994;-53
2022/12/15 01:22:41;;;;;;;40.50;19.40;;;-1.90;68.60;;;;;;2346249;57;21545;-48
2022/12/15 01:25:10;;;;;;;39.42;18.73;;;-1.90;68.60;;;;;;2345844;57;21054;-51
2022/12/15 01:27:37;;;;;;;37.97;19.08;;;-1.90;68.70;;;;;;2345671;57;21050;-49
2022/12/15 01:30:08;;;;;;;48.47;21.55;;;-1.80;68.70;;;;;;2345483;57;21128;-51
2022/12/15 01:32:35;;;;;;;39.95;18.80;;;-1.80;68.60;;;;;;2345724;57;21097;-50
2022/12/15 01:35:03;;;;;;;40.35;19.45;;;-1.70;68.40;;;;;;2345586;57;21113;-47
2022/12/15 01:37:30;;;;;;;37.05;19.92;;;-1.70;68.30;;;;;;2345786;57;21030;-48
2022/12/15 01:42:42;;;;;;;35.35;18.98;;;-1.70;68.40;;;;;;2346064;57;21070;-49
2022/12/15 01:45:46;;;;;;;33.13;17.40;;;-1.70;68.20;;;;;;2345622;57;21089;-53
2022/12/15 01:48:14;;;;;;;;;;;-1.70;68.10;;;;;;2349250;57;21129;-51
2022/12/15 01:50:45;;;;;;;31.25;16.33;;;-1.60;68.10;;;;;;2345607;57;20327;-50
2022/12/15 01:53:14;;;;;;;41.30;18.50;;;-1.70;67.60;;;;;;2346137;57;22167;-51
2022/12/15 01:55:43;;;;;;;38.88;19.17;;;-1.70;67.70;;;;;;2346181;57;21053;-49
2022/12/15 01:58:15;;;;;;;31.87;17.90;;;-1.70;67.90;;;;;;2346353;57;21847;-45
2022/12/15 02:00:42;;;;;;;35.38;18.10;;;-1.70;67.90;;;;;;2346332;57;21038;-48
2022/12/15 02:03:10;;;;;;;35.65;18.35;;;-1.70;68.60;;;;;;2344883;57;21168;-53
2022/12/15 02:05:39;;;;;;;33.60;18.60;;;-1.70;67.80;;;;;;2345656;57;21593;-49
2022/12/15 02:08:07;;;;;;;34.55;17.67;;;-1.70;67.50;;;;;;2396432;53;21073;-63
2022/12/15 02:10:46;;;;;;;35.15;17.52;;;-1.70;67.60;;;;;;2320756;58;21573;-63
2022/12/15 02:13:19;;;;;;;35.15;18.65;;;-1.70;67.50;;;;;;2320492;58;21041;-63
2022/12/15 02:15:49;;;;;;;41.72;18.58;;;-1.70;67.50;;;;;;2320332;58;21635;-63
2022/12/15 02:18:22;;;;;;;36.00;17.48;;;-1.80;67.40;;;;;;2329562;57;21042;-63
2022/12/15 02:20:57;;;;;;;37.30;18.55;;;-1.80;67.50;;;;;;2346994;57;21031;-63
2022/12/15 02:24:15;;;;;;;30.80;17.70;;;-1.80;67.60;;;;;;2346694;57;21131;-63
2022/12/15 02:30:29;;;;;;;40.40;22.55;;;-1.80;67.40;;;;;;2335686;57;27820;-65
2022/12/15 02:36:19;;;;;;;37.20;17.40;;;-1.90;68.40;;;;;;2355061;57;22062;-65
2022/12/15 02:38:46;;;;;;;37.38;16.52;;;-1.80;67.80;;;;;;2362372;56;21060;-65
2022/12/15 02:41:36;;;;;;;33.42;16.08;;;-1.80;67.70;;;;;;2374879;56;21136;-65
2022/12/15 02:44:08;;;;;;;33.90;16.80;;;-1.80;67.70;;;;;;2374421;56;21051;-65
2022/12/15 02:46:51;;;;;;;38.80;17.25;;;-1.80;67.60;;;;;;2373896;56;21103;-65
2022/12/15 02:49:30;;;;;;;31.77;17.30;;;-1.80;67.40;;;;;;2380911;56;21071;-50
2022/12/15 02:52:07;;;;;;;36.05;17.12;;;-1.80;67.30;;;;;;2174248;62;21562;-50
2022/12/15 02:54:57;;;;;;;35.08;17.95;;;-1.90;67.30;;;;;;2174217;62;21626;-51
2022/12/15 02:57:32;;;;;;;32.25;15.98;;;-1.90;67.50;;;;;;2178870;61;21097;-49
2022/12/15 03:00:04;;;;;;;33.60;16.52;;;-1.90;67.40;;;;;;2215447;61;21610;-50
2022/12/15 03:02:33;;;;;;;28.65;15.40;;;-1.90;67.50;;;;;;2215736;61;21574;-47
2022/12/15 03:05:01;;;;;;;27.90;14.68;;;-1.90;67.60;;;;;;2215110;61;21170;-51
2022/12/15 03:07:28;;;;;;;34.10;16.33;;;-1.90;67.70;;;;;;2214999;61;21546;-50
2022/12/15 03:09:56;;;;;;;31.50;15.55;;;-1.90;67.80;;;;;;2214871;60;21075;-49
2022/12/15 03:12:23;;;;;;;35.47;16.30;;;-1.90;67.80;;;;;;2213974;60;21118;-47
2022/12/15 03:14:51;;;;;;;35.80;16.65;;;-1.90;67.90;;;;;;2213986;61;21673;-49
2022/12/15 03:17:18;;;;;;;34.53;16.23;;;-1.90;67.90;;;;;;2215067;61;21075;-50
2022/12/15 03:19:45;;;;;;;30.95;16.27;;;-1.90;68.00;;;;;;2214891;61;21727;-49
2022/12/15 03:22:12;;;;;;;32.47;16.33;;;-1.90;68.80;;;;;;2215101;61;21134;-50
2022/12/15 03:24:39;;;;;;;33.92;15.75;;;-1.90;68.00;;;;;;2214905;60;21741;-47
2022/12/15 03:27:07;;;;;;;30.27;15.35;;;-1.90;68.00;;;;;;2214214;61;21154;-51
2022/12/15 03:29:34;;;;;;;34.45;16.98;;;-1.90;68.00;;;;;;2214532;60;21090;-47
2022/12/15 03:32:01;;;;;;;32.88;15.55;;;-1.90;68.10;;;;;;2214765;61;21134;-49
2022/12/15 03:34:28;;;;;;;36.10;17.20;;;-1.90;68.00;;;;;;2214214;61;21071;-51
2022/12/15 03:36:56;;;;;;;35.85;16.95;;;-1.90;67.80;;;;;;2213948;61;21567;-46
2022/12/15 03:39:23;;;;;;;32.85;16.62;;;-1.90;67.80;;;;;;2214649;61;21177;-50
2022/12/15 03:41:50;;;;;;;29.83;15.20;;;-1.90;67.70;;;;;;2214581;61;21071;-49
2022/12/15 03:44:17;;;;;;;35.22;17.45;;;-1.90;67.70;;;;;;2214284;61;21183;-51
2022/12/15 03:46:44;;;;;;;31.62;17.10;;;-1.90;67.60;;;;;;2214713;61;21099;-51
2022/12/15 03:49:11;;;;;;;35.45;17.12;;;-1.90;67.50;;;;;;2214192;61;21075;-49
2022/12/15 03:51:38;;;;;;;41.37;18.08;;;-1.80;67.40;;;;;;2214068;60;21091;-48
2022/12/15 03:54:06;;;;;;;36.40;18.02;;;-1.90;67.30;;;;;;2214257;60;21154;-49
2022/12/15 03:56:33;;;;;;;36.15;17.62;;;-1.90;67.40;;;;;;2213227;61;22130;-49
2022/12/15 03:59:00;;;;;;;35.72;16.87;;;-1.90;67.40;;;;;;2213039;60;21550;-48
2022/12/15 04:01:30;;;;;;;45.80;17.87;;;-1.90;67.50;;;;;;2214164;61;22120;-49
2022/12/15 04:03:57;;;;;;;32.10;15.18;;;-1.90;67.70;;;;;;2215212;61;21574;-50
2022/12/15 04:06:25;;;;;;;35.42;18.35;;;-1.90;67.70;;;;;;2214709;60;21055;-48
2022/12/15 04:08:52;;;;;;;37.55;16.08;;;-1.90;67.70;;;;;;2215135;61;21059;-48
2022/12/15 04:11:19;;;;;;;32.22;15.93;;;-1.90;67.70;;;;;;2215229;61;21078;-47
2022/12/15 04:13:46;;;;;;;33.72;18.17;;;-1.90;67.70;;;;;;2214120;60;21070;-47
2022/12/15 04:16:14;;;;;;;31.37;16.67;;;-1.90;67.90;;;;;;2215008;60;21182;-50
2022/12/15 04:18:41;;;;;;;34.42;16.12;;;-1.90;68.00;;;;;;2213831;61;21646;-50
2022/12/15 04:21:08;;;;;;;34.53;16.55;;;-1.90;68.10;;;;;;2214295;61;21611;-48
2022/12/15 04:23:35;;;;;;;41.58;18.02;;;-1.90;68.30;;;;;;2213571;61;21112;-51
2022/12/15 05:32:23;;;;;;;31.17;16.77;;;-1.90;69.00;;;;;;2319449;58;21032;-50
2022/12/15 05:34:50;;;;;;;33.08;15.80;;;-1.90;69.00;;;;;;2319754;58;21036;-51
2022/12/15 05:37:17;;;;;;;38.55;18.35;;;-1.90;69.10;;;;;;2320193;58;21203;-51
2022/12/15 05:39:44;;;;;;;38.97;17.75;;;-1.90;69.30;;;;;;2319759;58;21555;-48
2022/12/15 05:42:11;;;;;;;35.42;16.45;;;-1.90;69.30;;;;;;2319183;58;21115;-49
2022/12/15 05:44:39;;;;;;;38.20;16.27;;;-1.90;69.30;;;;;;2318821;58;21048;-49
2022/12/15 05:47:08;;;;;;;35.70;18.50;;;-1.90;69.40;;;;;;2318103;58;21063;-48
2022/12/15 05:49:35;;;;;;;32.72;17.12;;;-1.80;69.60;;;;;;2320379;58;21040;-48
2022/12/15 05:52:02;;;;;;;34.63;17.62;;;-1.80;69.50;;;;;;2320125;58;21020;-48
2022/12/15 05:54:29;;;;;;;34.42;17.65;;;-1.80;69.60;;;;;;2320144;58;21028;-50
2022/12/15 05:56:56;;;;;;;34.97;16.33;;;-1.80;69.80;;;;;;2319949;58;21032;-49
2022/12/15 05:59:23;;;;;;;33.00;16.65;;;-1.80;69.90;;;;;;2319529;58;21119;-50
2022/12/15 06:01:51;;;;;;;30.80;16.02;;;-1.80;70.00;;;;;;2317897;58;21610;-50
2022/12/15 06:04:18;;;;;;;32.83;18.10;;;-1.80;70.00;;;;;;2318852;58;21127;-51
2022/12/15 06:06:45;;;;;;;30.70;17.10;;;-1.80;70.10;;;;;;2318805;58;21623;-50
2022/12/15 06:09:12;;;;;;;38.90;17.52;;;-1.70;70.20;;;;;;2318775;58;21532;-48
2022/12/15 06:11:40;;;;;;;35.00;16.70;;;-1.70;70.30;;;;;;2319002;58;21053;-47
2022/12/15 06:14:07;;;;;;;33.08;17.80;;;-1.70;70.40;;;;;;2318812;58;21052;-47
2022/12/15 06:16:35;;;;;;;33.53;17.00;;;-1.70;70.50;;;;;;2318890;58;21048;-47
2022/12/15 06:19:03;;;;;;;30.52;15.90;;;-1.70;70.50;;;;;;2319775;58;21186;-47
2022/12/15 06:21:34;;;;;;;33.28;16.40;;;-1.70;70.50;;;;;;2319369;58;21143;-50
2022/12/15 06:24:01;;;;;;;38.20;17.30;;;-1.70;70.30;;;;;;2319577;58;21063;-49
2022/12/15 06:26:32;;;;;;;35.40;17.17;;;-1.70;70.10;;;;;;2319495;58;21666;-48
2022/12/15 06:29:02;;;;;;;32.13;16.02;;;-1.70;69.90;;;;;;2319312;58;21044;-51
2022/12/15 06:31:30;;;;;;;36.95;16.80;;;-1.70;69.90;;;;;;2318780;58;21060;-49
2022/12/15 06:33:58;;;;;;;39.90;17.48;;;-1.70;69.80;;;;;;2319188;58;21535;-48
2022/12/15 06:36:27;;;;;;;32.88;15.55;;;-1.60;69.80;;;;;;2318981;58;21547;-46
2022/12/15 06:38:57;;;;;;;31.20;15.55;;;-1.60;69.90;;;;;;2320164;58;21591;-48
2022/12/15 06:41:24;;;;;;;31.42;17.83;;;-1.60;69.90;;;;;;2320368;58;21520;-47
2022/12/15 06:43:54;;;;;;;35.67;17.48;;;-1.60;69.90;;;;;;2320484;58;21024;-50
2022/12/15 06:48:57;;;;;;;40.75;21.83;;;-1.60;69.70;;;;;;2315411;57;27952;-48
2022/12/15 06:51:24;;;;;;;41.28;20.50;;;-2.00;72.10;;;;;;2346571;57;21053;-48
2022/12/15 06:53:52;;;;;;;39.97;19.37;;;-1.80;72.00;;;;;;2347439;57;21581;-48
2022/12/15 06:56:21;;;;;;;38.45;19.42;;;-1.70;71.30;;;;;;2346206;57;21164;-48
2022/12/15 06:58:51;;;;;;;35.25;17.75;;;-1.60;70.80;;;;;;2347119;57;21045;-50
2022/12/15 07:01:19;;;;;;;35.17;17.80;;;-1.60;70.50;;;;;;2540380;52;21431;-56
2022/12/15 07:03:47;;;;;;;37.38;17.73;;;-1.60;70.30;;;;;;2376746;56;21517;-55
2022/12/15 07:06:15;;;;;;;37.30;18.00;;;-1.60;70.20;;;;;;2376832;56;21050;-56
2022/12/15 07:08:43;;;;;;;35.67;18.70;;;-1.60;70.00;;;;;;2377471;56;21054;-51
2022/12/15 07:11:12;;;;;;;34.35;18.40;;;-1.70;69.80;;;;;;2376999;56;21534;-56
2022/12/15 07:13:39;;;;;;;39.22;19.02;;;-1.60;70.00;;;;;;2376574;56;21605;-56
2022/12/15 07:16:10;;;;;;;34.53;17.33;;;-1.70;69.90;;;;;;2376782;56;21046;-52
2022/12/15 07:18:37;;;;;;;37.38;17.23;;;-1.70;70.00;;;;;;2376780;56;21424;-52
2022/12/15 07:21:07;;;;;;;37.30;18.90;;;-1.70;70.10;;;;;;2376597;56;21601;-53
2022/12/15 07:23:35;;;;;;;35.75;17.87;;;-1.70;70.20;;;;;;2376692;56;21035;-52
2022/12/15 07:26:03;;;;;;;39.25;16.65;;;-1.70;70.40;;;;;;2376621;56;21526;-54
2022/12/15 07:28:30;;;;;;;36.58;17.45;;;-1.60;70.60;;;;;;2375687;56;21058;-52
2022/12/15 07:31:02;;;;;;;35.90;16.77;;;-1.60;70.60;;;;;;2375902;56;21038;-54
2022/12/15 07:33:31;;;;;;;37.53;18.87;;;-1.60;70.80;;;;;;2378203;56;21002;-53
2022/12/15 07:35:59;;;;;;;36.58;17.17;;;-1.60;70.90;;;;;;2377875;56;21145;-51
2022/12/15 07:38:27;;;;;;;38.60;17.65;;;-1.60;71.00;;;;;;2378072;56;21010;-50
2022/12/15 07:40:54;;;;;;;34.90;16.67;;;-1.50;71.10;;;;;;2377825;56;21574;-52
2022/12/15 07:43:21;;;;;;;34.30;15.52;;;-1.50;71.20;;;;;;2377450;56;21007;-54
2022/12/15 07:45:52;;;;;;;32.70;16.23;;;-1.50;71.10;;;;;;2376396;56;21051;-51
2022/12/15 07:48:19;;;;;;;29.63;14.15;;;-1.50;71.10;;;;;;2376246;56;21620;-55
2022/12/15 07:50:47;;;;;;;31.50;15.27;;;-1.40;71.20;;;;;;2376667;56;21538;-49
2022/12/15 07:53:14;;;;;;;34.10;17.00;;;-1.40;71.20;;;;;;2376696;56;21094;-53
2022/12/15 07:55:41;;;;;;;35.60;18.12;;;-1.40;71.20;;;;;;2377301;56;21038;-55
2022/12/15 07:58:08;;;;;;;34.33;17.10;;;-1.30;71.90;;;;;;2376924;56;21196;-50
2022/12/15 08:00:37;;;;;;;33.05;16.48;;;-1.30;71.00;;;;;;2376119;56;21625;-53
2022/12/15 08:03:04;;;;;;;33.60;17.00;;;-1.20;71.00;;;;;;2375179;56;21035;-52
2022/12/15 08:05:31;;;;;;;35.97;18.02;;;-1.20;70.90;;;;;;2374992;56;21382;-51
2022/12/15 08:07:58;;;;;;;36.30;18.98;;;-1.20;70.80;;;;;;2375758;56;21102;-53
2022/12/15 08:10:26;;;;;;;40.35;19.08;;;-1.20;70.80;;;;;;2374054;56;21289;-51
2022/12/15 08:12:54;;;;;;;30.37;16.70;;;-1.20;70.60;;;;;;2375104;56;21386;-52
2022/12/15 08:17:57;;;;;;;42.15;23.52;;;-1.10;70.50;;;;;;2336011;57;27786;-52
2022/12/15 08:20:24;;;;;;;38.03;18.17;;;-1.30;72.10;;;;;;2345660;57;21146;-54
2022/12/15 08:22:52;;;;;;;39.15;19.10;;;-1.20;72.00;;;;;;2345078;57;21030;-54
2022/12/15 08:25:19;;;;;;;36.80;17.58;;;-1.10;71.30;;;;;;2346343;57;21573;-54
2022/12/15 08:27:49;;;;;;;32.30;16.37;;;-1.10;71.10;;;;;;2345306;57;21074;-57
2022/12/15 08:30:17;;;;;;;34.05;17.40;;;-1.00;71.10;;;;;;2345154;57;21042;-51
2022/12/15 08:32:44;;;;;;;34.55;18.02;;;-0.90;71.10;;;;;;2345135;57;21106;-54
2022/12/15 08:35:11;;;;;;;36.38;17.85;;;-0.90;70.90;;;;;;2345368;57;21775;-49
2022/12/15 08:37:39;;;;;;;32.30;17.55;;;-0.90;70.90;;;;;;2344927;57;21173;-53
2022/12/15 08:40:08;;;;;;;36.30;18.02;;;-0.90;71.00;;;;;;2345021;57;21050;-52
2022/12/15 08:42:36;;;;;;;31.85;16.58;;;-0.90;71.20;;;;;;2345202;57;21196;-55
2022/12/15 08:45:06;;;;;;;32.70;17.65;;;-0.80;71.20;;;;;;2344984;57;21026;-51
2022/12/15 08:47:33;;;;;;;32.75;17.58;;;-0.80;71.20;;;;;;2345195;57;21065;-53
2022/12/15 08:50:00;;;;;;;34.70;17.77;;;-0.70;71.30;;;;;;2343916;57;21042;-50
2022/12/15 08:52:27;;;;;;;38.72;18.15;;;-0.70;71.10;;;;;;2344983;57;21548;-52
2022/12/15 08:54:54;;;;;;;28.85;16.27;;;-0.70;71.30;;;;;;2345255;57;22125;-54
2022/12/15 08:57:21;;;;;;;33.30;17.27;;;-0.60;71.50;;;;;;2345208;57;21101;-52
2022/12/15 08:59:49;;;;;;;33.53;16.40;;;-0.60;71.40;;;;;;2343622;57;21116;-55
2022/12/15 09:04:55;;;;;;;35.20;16.50;;;-0.60;71.50;;;;;;2353342;57;22180;-54
2022/12/15 09:07:22;;;;;;;34.00;16.58;;;-0.50;71.50;;;;;;2345165;57;21066;-52
2022/12/15 09:09:49;;;;;;;37.95;17.52;;;-0.50;71.60;;;;;;2345963;57;21521;-55
2022/12/15 09:12:16;;;;;;;40.60;18.15;;;-0.50;71.10;;;;;;2345239;57;21089;-56
2022/12/15 09:14:43;;;;;;;34.95;18.23;;;-0.40;72.00;;;;;;2345627;57;21068;-56
2022/12/15 09:17:11;;;;;;;39.88;18.77;;;-0.40;72.20;;;;;;2345694;57;21054;-55
2022/12/15 09:19:38;;;;;;;35.28;18.58;;;-0.40;72.20;;;;;;2346653;57;21057;-55
2022/12/15 09:22:06;;;;;;;33.15;17.98;;;-0.40;72.40;;;;;;2346836;56;21014;-53
2022/12/15 09:24:33;;;;;;;39.53;19.15;;;-0.30;72.60;;;;;;2345474;57;21042;-52
2022/12/15 09:27:02;;;;;;;34.80;17.30;;;-0.30;72.80;;;;;;2345464;57;21113;-53
2022/12/15 09:29:29;;;;;;;32.22;17.33;;;-0.20;73.10;;;;;;2344658;57;21616;-57
2022/12/15 09:31:56;;;;;;;35.95;17.37;;;-0.20;73.10;;;;;;2449381;53;21050;-57
2022/12/15 09:34:23;;;;;;;34.15;17.55;;;-0.10;73.40;;;;;;2345218;57;21749;-53
2022/12/15 09:36:50;;;;;;;32.60;17.83;;;0.00;73.50;;;;;;2345917;57;21042;-55
2022/12/15 09:39:18;;;;;;;33.55;17.83;;;0.00;73.30;;;;;;2346088;57;21069;-54
2022/12/15 09:41:53;;;;;;;41.75;19.02;;;0.10;73.90;;;;;;2345481;57;21610;-57
2022/12/15 09:44:23;;;;;;;30.60;16.50;;;0.20;73.40;;;;;;2346328;57;21050;-57
2022/12/15 09:47:07;;;;;;;29.42;15.93;;;0.20;73.20;;;;;;2345518;57;21050;-54
2022/12/15 09:49:50;;;;;;;32.92;16.30;;;0.30;73.20;;;;;;2345583;57;21113;-55
2022/12/15 09:52:18;;;;;;;;;;;0.30;73.10;;;;;;2349141;57;21609;-54
2022/12/15 09:54:46;;;;;;;30.50;15.48;;;0.40;72.80;;;;;;2345308;57;20090;-54
2022/12/15 09:57:32;;;;;;;27.70;15.85;;;0.50;72.60;;;;;;2345322;57;22475;-54
2022/12/15 10:00:13;;;;;;;27.77;16.33;;;0.50;72.50;;;;;;2345711;57;22164;-53
2022/12/15 10:03:15;;;;;;;30.98;15.65;;;0.60;72.60;;;;;;2346475;57;21045;-56
2022/12/15 10:05:52;;;;;;;34.15;16.65;;;0.60;72.60;;;;;;2346815;57;21006;-56
2022/12/15 10:08:22;;;;;;;32.17;16.08;;;0.60;72.40;;;;;;2346988;57;21538;-55
2022/12/15 10:10:53;;;;;;;29.70;15.70;;;0.70;72.70;;;;;;2346437;57;21026;-53
2022/12/15 10:13:26;;;;;;;30.20;16.05;;;0.80;72.90;;;;;;2346707;57;21490;-59
2022/12/15 10:15:59;;;;;;;34.83;15.68;;;0.80;72.90;;;;;;2345186;57;21644;-59
2022/12/15 10:18:34;;;;;;;30.80;14.93;;;0.90;72.80;;;;;;2344667;57;21530;-57
2022/12/15 10:21:01;;;;;;;28.75;16.80;;;1.00;72.90;;;;;;2344404;57;21088;-53
2022/12/15 10:23:28;;;;;;;27.02;15.40;;;1.00;72.80;;;;;;2344603;57;21526;-60
2022/12/15 10:26:09;;;;;;;33.28;16.50;;;1.10;72.70;;;;;;2344695;57;21033;-57
2022/12/15 10:29:04;;;;;;;36.92;17.85;;;1.20;72.50;;;;;;2344308;57;21621;-56
2022/12/15 10:31:40;;;;;;;29.42;16.90;;;1.20;72.40;;;;;;2343101;57;21590;-56
2022/12/15 10:34:26;;;;;;;30.48;16.48;;;1.20;72.30;;;;;;2344324;57;21109;-56
2022/12/15 10:36:55;;;;;;;32.33;17.77;;;1.20;72.20;;;;;;2358942;53;21047;-58
2022/12/15 10:39:37;;;;;;;34.33;16.75;;;1.20;72.30;;;;;;2343427;57;21522;-54
2022/12/15 10:44:50;;;;;;;31.05;17.23;;;1.30;72.80;;;;;;2354865;57;22078;-58
2022/12/15 10:47:21;;;;;;;30.30;16.70;;;1.30;73.00;;;;;;2346113;57;21599;-53
2022/12/15 10:49:48;;;;;;;32.90;18.55;;;1.30;73.10;;;;;;2345393;57;21621;-52
2022/12/15 10:52:22;;;;;;;31.95;17.02;;;1.40;73.50;;;;;;2344794;57;21050;-53
2022/12/15 10:54:51;;;;;;;33.08;17.75;;;1.40;73.50;;;;;;2346026;57;21089;-55
2022/12/15 10:57:23;;;;;;;31.42;17.12;;;1.40;73.50;;;;;;2345679;57;21113;-53
2022/12/15 10:59:51;;;;;;;29.85;15.55;;;1.50;73.60;;;;;;2346238;57;21022;-50
2022/12/15 11:05:16;;;;;;;34.33;20.88;;;1.60;73.80;;;;;;2335229;57;27809;-59
2022/12/15 11:07:46;;;;;;;29.83;17.33;;;1.60;76.50;;;;;;2346412;57;21041;-60
2022/12/15 11:10:20;;;;;;;31.73;16.58;;;1.70;75.60;;;;;;2345995;57;21736;-57
2022/12/15 11:12:58;;;;;;;29.40;14.87;;;1.80;74.80;;;;;;2344228;57;21046;-60
2022/12/15 11:15:45;;;;;;;31.08;16.62;;;1.80;73.90;;;;;;2344882;57;21053;-52
2022/12/15 11:18:31;;;;;;;27.00;15.13;;;1.80;73.30;;;;;;2342860;57;21026;-57
2022/12/15 11:21:04;;;;;;;27.77;14.98;;;1.80;73.10;;;;;;2342537;57;21038;-55
2022/12/15 11:23:54;;;;;;;29.08;15.23;;;1.80;73.10;;;;;;2344512;57;21097;-59
2022/12/15 11:26:36;;;;;;;26.98;15.18;;;1.90;73.40;;;;;;2344592;57;21583;-50
2022/12/15 11:29:15;;;;;;;24.40;13.88;;;1.90;73.40;;;;;;2345450;57;21574;-53
2022/12/15 11:31:44;;;;;;;32.75;15.70;;;1.90;73.10;;;;;;2379927;53;21547;-53
2022/12/15 11:34:14;;;;;;;26.48;14.52;;;1.90;73.00;;;;;;2343780;57;21731;-51
2022/12/15 11:37:16;;;;;;;24.65;14.90;;;2.00;72.70;;;;;;2344478;57;21037;-52
2022/12/15 11:40:00;;;;;;;27.65;15.30;;;2.00;72.70;;;;;;2345135;57;21633;-55
2022/12/15 11:42:44;;;;;;;34.08;14.38;;;2.00;72.40;;;;;;2365494;53;21593;-56
2022/12/15 11:45:20;;;;;;;29.25;15.52;;;2.00;72.30;;;;;;2345212;57;22258;-54
2022/12/15 11:47:51;;;;;;;26.98;13.82;;;2.00;71.90;;;;;;2346607;57;21102;-57
2022/12/15 11:50:26;;;;;;;29.58;15.40;;;2.00;72.20;;;;;;2345425;57;21078;-57
2022/12/15 11:53:14;;;;;;;31.20;18.27;;;2.10;72.40;;;;;;2345666;57;21041;-55
2022/12/15 11:55:50;;;;;;;26.37;14.23;;;2.10;72.50;;;;;;2345973;57;21053;-56
2022/12/15 11:59:10;;;;;;;27.35;13.85;;;2.10;72.40;;;;;;2344091;57;21106;-56
2022/12/15 12:01:56;;;;;;;28.75;13.80;;;2.10;72.10;;;;;;2370121;53;21526;-57
2022/12/15 12:04:27;;;;;;;26.42;14.15;;;2.10;71.70;;;;;;2344526;57;21555;-56
2022/12/15 12:07:07;;;;;;;26.83;14.35;;;2.10;71.60;;;;;;2344958;57;21046;-54
2022/12/15 12:09:38;;;;;;;27.40;14.68;;;2.10;71.50;;;;;;2344595;57;21538;-52
2022/12/15 12:12:15;;;;;;;26.52;15.38;;;2.10;71.70;;;;;;2345407;57;21562;-52
2022/12/15 12:14:56;;;;;;;47.88;16.17;;;2.10;71.80;;;;;;2345610;57;21086;-52
2022/12/15 12:17:37;;;;;;;23.23;14.63;;;2.10;71.90;;;;;;2344297;57;21038;-58
2022/12/15 12:22:42;;;;;;;33.10;19.17;;;2.10;72.30;;;;;;2306316;57;27920;-55
2022/12/15 12:25:14;;;;;;;26.30;15.07;;;2.20;75.60;;;;;;2317023;58;21532;-54
2022/12/15 12:27:48;;;;;;;28.70;14.73;;;2.30;75.00;;;;;;2317134;58;21064;-57
2022/12/15 12:30:18;;;;;;;30.92;16.80;;;2.40;74.50;;;;;;2342061;54;21045;-57
2022/12/15 12:32:52;;;;;;;24.15;14.25;;;2.40;74.90;;;;;;2316001;58;21672;-57
2022/12/15 12:35:27;;;;;;;34.88;15.73;;;2.50;73.80;;;;;;2316647;58;21614;-54
2022/12/15 12:40:51;;;;;;;22.90;13.65;;;2.50;72.70;;;;;;2368722;56;22568;-55
2022/12/15 12:43:30;;;;;;;24.67;13.57;;;2.60;72.70;;;;;;2374064;56;21121;-57
2022/12/15 12:46:02;;;;;;;22.55;13.05;;;2.60;72.80;;;;;;2374003;56;21554;-55
2022/12/15 12:48:33;;;;;;;24.23;14.82;;;2.60;72.60;;;;;;2375499;56;21015;-59
2022/12/15 12:51:15;;;;;;;23.08;12.95;;;2.60;72.30;;;;;;2374273;56;21059;-56
2022/12/15 12:53:42;;;;;;;25.62;14.27;;;2.60;72.30;;;;;;2374065;56;21530;-62
2022/12/15 12:56:32;;;;;;;23.30;13.25;;;2.70;72.30;;;;;;2374054;56;21541;-61
2022/12/15 12:59:06;;;;;;;28.20;14.68;;;2.70;72.20;;;;;;2374109;56;21558;-57
2022/12/15 13:01:35;;;;;;;21.73;12.80;;;2.70;72.20;;;;;;2372960;56;21102;-58
2022/12/15 13:04:10;;;;;;;20.23;11.90;;;2.70;72.40;;;;;;2374065;56;21534;-57
2022/12/15 13:06:57;;;;;;;25.65;13.93;;;2.80;72.50;;;;;;2374745;56;21596;-60
2022/12/15 13:09:37;;;;;;;22.83;12.57;;;2.80;72.40;;;;;;2375129;56;21602;-55
2022/12/15 13:12:31;;;;;;;25.67;13.98;;;2.80;72.10;;;;;;2374044;56;21523;-57
2022/12/15 13:15:00;;;;;;;23.67;12.57;;;2.80;72.00;;;;;;2374280;56;21051;-57
2022/12/15 13:17:37;;;;;;;20.88;13.35;;;2.80;71.90;;;;;;2373608;56;21523;-56
2022/12/15 13:23:35;;;;;;;24.95;13.95;;;2.80;72.00;;;;;;2353144;57;22128;-58
2022/12/15 13:26:13;;;;;;;23.38;12.90;;;2.80;71.90;;;;;;2346563;57;21065;-57
2022/12/15 13:28:44;;;;;;;25.67;13.32;;;2.80;71.80;;;;;;2345922;57;21695;-59
2022/12/15 13:31:29;;;;;;;25.08;13.13;;;2.80;72.80;;;;;;2367264;56;22156;-53
2022/12/15 13:34:09;;;;;;;21.27;13.68;;;2.80;72.20;;;;;;2375701;56;21079;-57
2022/12/15 13:36:50;;;;;;;23.17;13.20;;;2.80;72.40;;;;;;2375186;56;21024;-57
2022/12/15 13:39:56;;;;;;;22.25;12.32;;;2.80;72.40;;;;;;2375042;56;21036;-56
2022/12/15 13:42:35;;;;;;;23.75;13.00;;;2.90;72.50;;;;;;2375364;56;21019;-57
2022/12/15 13:45:38;;;;;;;23.52;12.37;;;2.90;72.50;;;;;;2375229;56;21024;-56
2022/12/15 13:48:26;;;;;;;25.80;12.45;;;2.90;72.60;;;;;;2374198;56;21526;-56
2022/12/15 13:51:14;;;;;;;25.27;14.02;;;2.90;72.50;;;;;;2373873;56;21545;-58
2022/12/15 13:53:46;;;;;;;28.23;16.75;;;2.90;72.50;;;;;;2373796;56;21671;-56
2022/12/15 13:56:52;;;;;;;27.20;18.67;;;3.00;72.60;;;;;;2373987;56;21036;-57
2022/12/15 13:59:40;;;;;;;26.35;15.60;;;3.00;72.70;;;;;;2373364;56;21699;-57
2022/12/15 14:02:23;;;;;;;32.53;21.42;;;3.10;72.80;;;;;;2373009;56;21075;-59
2022/12/15 14:05:05;;;;;;;37.20;22.15;;;3.10;72.80;;;;;;2374951;56;21043;-61
2022/12/15 14:07:33;;;;;;;24.50;18.17;;;3.10;72.70;;;;;;2374553;56;21520;-62
2022/12/15 14:10:03;;;;;;;27.23;16.02;;;3.20;72.60;;;;;;2374314;56;21063;-60
2022/12/15 14:12:30;;;;;;;23.65;16.48;;;3.20;72.70;;;;;;2373557;56;21563;-57
2022/12/15 14:14:57;;;;;;;24.95;15.73;;;3.20;73.40;;;;;;2373594;56;21071;-60
2022/12/15 14:17:27;;;;;;;24.02;14.82;;;3.20;72.70;;;;;;2374270;56;21674;-59
2022/12/15 14:19:54;;;;;;;22.87;13.62;;;3.30;72.90;;;;;;2373742;56;21110;-55
2022/12/15 14:22:24;;;;;;;22.27;14.40;;;3.30;73.10;;;;;;2374006;56;21690;-54
2022/12/15 14:24:52;;;;;;;19.15;13.88;;;3.30;73.00;;;;;;2373668;56;21052;-58
2022/12/15 14:27:24;;;;;;;17.95;13.43;;;3.30;73.00;;;;;;2373838;56;21614;-58
2022/12/15 14:30:28;;;;;;;24.67;13.90;;;3.30;73.10;;;;;;2375472;56;21578;-56
2022/12/15 14:33:00;;;;;;;24.12;13.62;;;3.30;73.10;;;;;;2374896;56;21079;-60
2022/12/15 14:35:31;;;;;;;20.62;11.80;;;3.40;73.00;;;;;;2373881;56;21060;-57
2022/12/15 14:38:02;;;;;;;22.50;12.10;;;3.40;73.00;;;;;;2374618;56;21111;-55
2022/12/15 14:40:30;;;;;;;21.30;12.77;;;3.40;73.00;;;;;;2373404;56;21132;-61
2022/12/15 14:42:57;;;;;;;26.15;12.37;;;3.40;73.00;;;;;;2372931;56;22315;-59
2022/12/15 14:45:27;;;;;;;19.10;11.80;;;3.40;73.00;;;;;;2372901;56;21946;-55
2022/12/15 14:47:58;;;;;;;21.05;12.02;;;3.50;73.10;;;;;;2372910;56;21539;-56
2022/12/15 14:50:26;;;;;;;16.50;11.12;;;3.50;73.00;;;;;;2373308;56;21129;-58
2022/12/15 14:52:56;;;;;;;25.12;13.25;;;3.50;72.90;;;;;;2372727;56;21229;-58
2022/12/15 14:55:31;;;;;;;63.95;15.25;;;3.50;72.70;;;;;;2372419;56;21040;-59
2022/12/15 14:57:59;;;;;;;19.45;11.12;;;3.50;72.60;;;;;;2373180;56;21068;-57
2022/12/15 15:00:29;;;;;;;23.75;12.90;;;3.50;72.70;;;;;;2373842;56;21516;-57
2022/12/15 15:03:21;;;;;;;20.35;11.95;;;3.50;72.60;;;;;;2373305;56;21662;-59
2022/12/15 15:05:52;;;;;;;24.85;13.05;;;3.50;72.60;;;;;;2373094;56;21135;-56
2022/12/15 15:08:27;;;;;;;17.95;10.98;;;3.50;72.30;;;;;;2372951;56;22107;-61
2022/12/15 15:10:55;;;;;;;25.00;11.32;;;3.50;72.20;;;;;;2373063;56;21039;-60
2022/12/15 15:13:25;;;;;;;21.10;13.07;;;3.50;72.00;;;;;;2372826;56;21560;-59
2022/12/15 15:15:54;;;;;;;23.80;11.52;;;3.50;72.00;;;;;;2373102;56;21559;-59
2022/12/15 15:18:25;;;;;;;24.23;12.13;;;3.50;71.90;;;;;;2372630;56;21052;-57
2022/12/15 15:20:58;;;;;;;21.65;12.18;;;3.40;71.80;;;;;;2374300;56;21016;-57
2022/12/15 15:23:25;;;;;;;21.95;12.05;;;3.40;71.80;;;;;;2374098;56;21546;-56
2022/12/15 15:25:55;;;;;;;20.30;11.65;;;3.40;71.70;;;;;;2374469;56;21087;-59
2022/12/15 15:28:24;;;;;;;22.43;12.20;;;3.40;71.60;;;;;;2374268;56;21689;-59
2022/12/15 15:30:54;;;;;;;19.45;11.85;;;3.40;71.60;;;;;;2374063;56;21020;-57
2022/12/15 15:33:21;;;;;;;22.92;12.13;;;3.40;71.60;;;;;;2374663;56;21107;-58
2022/12/15 15:35:52;;;;;;;20.65;11.15;;;3.40;72.40;;;;;;2373267;56;21139;-58
2022/12/15 15:38:23;;;;;;;19.02;10.43;;;3.40;71.70;;;;;;2372832;56;21110;-58
2022/12/15 15:40:55;;;;;;;23.35;12.45;;;3.30;71.80;;;;;;2372993;56;21059;-55
2022/12/15 15:43:23;;;;;;;20.05;11.10;;;3.40;72.00;;;;;;2372834;56;21051;-57
2022/12/15 15:45:54;;;;;;;21.45;11.05;;;3.40;72.10;;;;;;2371848;56;21032;-58